sensor_id;sensor_type;location;lat;lon;timestamp;P1;durP1;ratioP1;P2;durP2;ratioP2
12950;SDS011;6540;50.858;7.232;2023-02-26T00:01:17;4.00;;;2.03;;
12950;SDS011;6540;50.858;7.232;2023-02-26T00:03:43;1.83;;;1.60;;
12950;SDS011;6540;50.858;7.232;2023-02-26T00:06:13;5.10;;;2.33;;
12950;SDS011;6540;50.858;7.232;2023-02-26T00:08:38;3.83;;;2.17;;
12950;SDS011;6540;50.858;7.232;2023-02-26T00:11:07;1.90;;;1.73;;
12950;SDS011;6540;50.858;7.232;2023-02-26T00:13:35;2.63;;;2.03;;
12950;SDS011;6540;50.858;7.232;2023-02-26T00:16:01;2.20;;;1.87;;
12950;SDS011;6540;50.858;7.232;2023-02-26T00:18:27;4.13;;;2.17;;
12950;SDS011;6540;50.858;7.232;2023-02-26T00:20:53;3.23;;;2.17;;
12950;SDS011;6540;50.858;7.232;2023-02-26T00:23:19;2.03;;;1.67;;
12950;SDS011;6540;50.858;7.232;2023-02-26T00:25:44;2.33;;;1.80;;
12950;SDS011;6540;50.858;7.232;2023-02-26T00:28:10;4.40;;;1.93;;
12950;SDS011;6540;50.858;7.232;2023-02-26T00:30:36;1.73;;;1.63;;
12950;SDS011;6540;50.858;7.232;2023-02-26T00:33:02;2.10;;;1.90;;
12950;SDS011;6540;50.858;7.232;2023-02-26T00:35:29;3.73;;;2.37;;
12950;SDS011;6540;50.858;7.232;2023-02-26T00:40:36;2.20;;;2.00;;
12950;SDS011;6540;50.858;7.232;2023-02-26T00:43:05;3.77;;;2.60;;
12950;SDS011;6540;50.858;7.232;2023-02-26T00:45:33;4.53;;;2.80;;
12950;SDS011;6540;50.858;7.232;2023-02-26T00:50:43;5.43;;;2.77;;
12950;SDS011;6540;50.858;7.232;2023-02-26T00:53:18;6.20;;;2.80;;
12950;SDS011;6540;50.858;7.232;2023-02-26T00:55:49;8.00;;;2.97;;
12950;SDS011;6540;50.858;7.232;2023-02-26T00:58:14;6.50;;;3.40;;
12950;SDS011;6540;50.858;7.232;2023-02-26T01:00:39;4.27;;;2.60;;
12950;SDS011;6540;50.858;7.232;2023-02-26T01:03:05;4.57;;;2.93;;
12950;SDS011;6540;50.858;7.232;2023-02-26T01:05:30;6.13;;;2.00;;
12950;SDS011;6540;50.858;7.232;2023-02-26T01:10:34;3.63;;;2.33;;
12950;SDS011;6540;50.858;7.232;2023-02-26T01:13:00;3.97;;;2.37;;
12950;SDS011;6540;50.858;7.232;2023-02-26T01:15:25;2.93;;;2.60;;
12950;SDS011;6540;50.858;7.232;2023-02-26T01:20:30;2.40;;;2.20;;
12950;SDS011;6540;50.858;7.232;2023-02-26T01:23:19;3.20;;;2.40;;
12950;SDS011;6540;50.858;7.232;2023-02-26T01:25:50;2.57;;;2.00;;
12950;SDS011;6540;50.858;7.232;2023-02-26T01:28:21;3.80;;;2.70;;
12950;SDS011;6540;50.858;7.232;2023-02-26T01:30:47;6.33;;;2.27;;
12950;SDS011;6540;50.858;7.232;2023-02-26T01:33:18;2.77;;;1.90;;
12950;SDS011;6540;50.858;7.232;2023-02-26T01:35:52;5.97;;;3.00;;
12950;SDS011;6540;50.858;7.232;2023-02-26T01:49:24;3.57;;;3.27;;
12950;SDS011;6540;50.858;7.232;2023-02-26T01:54:16;6.47;;;2.60;;
12950;SDS011;6540;50.858;7.232;2023-02-26T01:56:43;3.20;;;2.40;;
12950;SDS011;6540;50.858;7.232;2023-02-26T01:59:13;4.47;;;2.10;;
12950;SDS011;6540;50.858;7.232;2023-02-26T02:01:44;5.30;;;2.53;;
12950;SDS011;6540;50.858;7.232;2023-02-26T02:04:11;3.93;;;2.77;;
12950;SDS011;6540;50.858;7.232;2023-02-26T02:06:38;2.57;;;2.37;;
12950;SDS011;6540;50.858;7.232;2023-02-26T02:09:04;5.67;;;2.63;;
12950;SDS011;6540;50.858;7.232;2023-02-26T02:11:31;5.13;;;2.60;;
12950;SDS011;6540;50.858;7.232;2023-02-26T02:19:21;2.90;;;2.43;;
12950;SDS011;6540;50.858;7.232;2023-02-26T02:25:04;3.70;;;2.47;;
12950;SDS011;6540;50.858;7.232;2023-02-26T02:27:59;2.73;;;2.17;;
12950;SDS011;6540;50.858;7.232;2023-02-26T02:33:33;3.60;;;1.97;;
12950;SDS011;6540;50.858;7.232;2023-02-26T02:36:17;3.00;;;2.20;;
12950;SDS011;6540;50.858;7.232;2023-02-26T02:38:48;3.70;;;2.23;;
12950;SDS011;6540;50.858;7.232;2023-02-26T02:41:19;3.13;;;1.80;;
12950;SDS011;6540;50.858;7.232;2023-02-26T02:43:50;2.30;;;2.10;;
12950;SDS011;6540;50.858;7.232;2023-02-26T02:46:23;2.83;;;1.93;;
12950;SDS011;6540;50.858;7.232;2023-02-26T02:48:59;2.83;;;2.10;;
12950;SDS011;6540;50.858;7.232;2023-02-26T02:51:29;7.20;;;2.43;;
12950;SDS011;6540;50.858;7.232;2023-02-26T02:56:45;2.20;;;2.00;;
12950;SDS011;6540;50.858;7.232;2023-02-26T02:59:17;3.97;;;2.57;;
12950;SDS011;6540;50.858;7.232;2023-02-26T03:04:36;2.67;;;2.30;;
12950;SDS011;6540;50.858;7.232;2023-02-26T03:07:02;2.50;;;2.30;;
12950;SDS011;6540;50.858;7.232;2023-02-26T03:09:28;4.10;;;1.87;;
12950;SDS011;6540;50.858;7.232;2023-02-26T03:11:53;2.97;;;1.87;;
12950;SDS011;6540;50.858;7.232;2023-02-26T03:14:19;3.00;;;2.30;;
12950;SDS011;6540;50.858;7.232;2023-02-26T03:25:17;2.40;;;2.20;;
12950;SDS011;6540;50.858;7.232;2023-02-26T03:33:36;3.73;;;2.20;;
12950;SDS011;6540;50.858;7.232;2023-02-26T03:36:07;2.13;;;1.93;;
12950;SDS011;6540;50.858;7.232;2023-02-26T03:41:40;4.87;;;2.50;;
12950;SDS011;6540;50.858;7.232;2023-02-26T03:44:20;2.67;;;2.10;;
12950;SDS011;6540;50.858;7.232;2023-02-26T03:46:51;2.33;;;2.13;;
12950;SDS011;6540;50.858;7.232;2023-02-26T03:49:25;2.17;;;1.97;;
12950;SDS011;6540;50.858;7.232;2023-02-26T03:51:58;6.23;;;2.60;;
12950;SDS011;6540;50.858;7.232;2023-02-26T03:55:28;3.37;;;2.40;;
12950;SDS011;6540;50.858;7.232;2023-02-26T03:57:24;2.20;;;1.97;;
12950;SDS011;6540;50.858;7.232;2023-02-26T03:59:49;2.00;;;1.80;;
12950;SDS011;6540;50.858;7.232;2023-02-26T04:02:16;4.07;;;2.40;;
12950;SDS011;6540;50.858;7.232;2023-02-26T04:04:48;2.57;;;2.17;;
12950;SDS011;6540;50.858;7.232;2023-02-26T04:07:18;3.13;;;1.90;;
12950;SDS011;6540;50.858;7.232;2023-02-26T04:09:45;3.47;;;2.67;;
12950;SDS011;6540;50.858;7.232;2023-02-26T04:12:12;2.00;;;1.80;;
12950;SDS011;6540;50.858;7.232;2023-02-26T04:14:37;5.63;;;2.40;;
12950;SDS011;6540;50.858;7.232;2023-02-26T04:17:03;5.37;;;2.43;;
12950;SDS011;6540;50.858;7.232;2023-02-26T04:19:29;3.87;;;2.43;;
12950;SDS011;6540;50.858;7.232;2023-02-26T04:21:55;1.73;;;1.63;;
12950;SDS011;6540;50.858;7.232;2023-02-26T04:24:20;2.00;;;1.90;;
12950;SDS011;6540;50.858;7.232;2023-02-26T04:26:46;3.43;;;2.23;;
12950;SDS011;6540;50.858;7.232;2023-02-26T04:29:11;2.33;;;2.13;;
12950;SDS011;6540;50.858;7.232;2023-02-26T04:31:36;2.30;;;2.13;;
12950;SDS011;6540;50.858;7.232;2023-02-26T04:34:02;2.37;;;2.10;;
12950;SDS011;6540;50.858;7.232;2023-02-26T04:36:27;4.37;;;2.13;;
12950;SDS011;6540;50.858;7.232;2023-02-26T04:38:53;2.63;;;2.43;;
12950;SDS011;6540;50.858;7.232;2023-02-26T04:41:18;2.87;;;2.57;;
12950;SDS011;6540;50.858;7.232;2023-02-26T04:43:44;3.77;;;2.63;;
12950;SDS011;6540;50.858;7.232;2023-02-26T04:46:09;2.80;;;2.60;;
12950;SDS011;6540;50.858;7.232;2023-02-26T04:48:34;2.97;;;2.20;;
12950;SDS011;6540;50.858;7.232;2023-02-26T04:51:00;2.13;;;1.93;;
12950;SDS011;6540;50.858;7.232;2023-02-26T04:53:25;2.27;;;2.07;;
12950;SDS011;6540;50.858;7.232;2023-02-26T04:55:50;2.50;;;2.30;;
12950;SDS011;6540;50.858;7.232;2023-02-26T04:58:16;5.10;;;2.13;;
12950;SDS011;6540;50.858;7.232;2023-02-26T05:00:41;2.50;;;2.00;;
12950;SDS011;6540;50.858;7.232;2023-02-26T05:03:07;3.33;;;3.03;;
12950;SDS011;6540;50.858;7.232;2023-02-26T05:05:34;4.17;;;2.03;;
12950;SDS011;6540;50.858;7.232;2023-02-26T05:07:59;2.37;;;1.90;;
12950;SDS011;6540;50.858;7.232;2023-02-26T05:10:25;3.47;;;1.93;;
12950;SDS011;6540;50.858;7.232;2023-02-26T05:12:50;3.37;;;2.00;;
12950;SDS011;6540;50.858;7.232;2023-02-26T05:15:16;2.40;;;2.20;;
12950;SDS011;6540;50.858;7.232;2023-02-26T05:17:41;1.93;;;1.83;;
12950;SDS011;6540;50.858;7.232;2023-02-26T05:20:07;2.67;;;2.13;;
12950;SDS011;6540;50.858;7.232;2023-02-26T05:22:37;2.50;;;2.07;;
12950;SDS011;6540;50.858;7.232;2023-02-26T05:25:03;2.40;;;2.20;;
12950;SDS011;6540;50.858;7.232;2023-02-26T05:27:30;2.13;;;1.90;;
12950;SDS011;6540;50.858;7.232;2023-02-26T05:29:55;3.53;;;2.50;;
12950;SDS011;6540;50.858;7.232;2023-02-26T05:32:21;6.80;;;2.40;;
12950;SDS011;6540;50.858;7.232;2023-02-26T05:34:46;7.77;;;3.30;;
12950;SDS011;6540;50.858;7.232;2023-02-26T05:37:12;2.43;;;2.23;;
12950;SDS011;6540;50.858;7.232;2023-02-26T05:39:37;3.30;;;3.00;;
12950;SDS011;6540;50.858;7.232;2023-02-26T05:42:05;3.37;;;2.43;;
12950;SDS011;6540;50.858;7.232;2023-02-26T05:44:31;2.50;;;2.13;;
12950;SDS011;6540;50.858;7.232;2023-02-26T05:46:56;5.37;;;2.20;;
12950;SDS011;6540;50.858;7.232;2023-02-26T05:49:21;2.27;;;2.00;;
12950;SDS011;6540;50.858;7.232;2023-02-26T05:51:47;7.63;;;2.30;;
12950;SDS011;6540;50.858;7.232;2023-02-26T05:54:12;2.80;;;2.43;;
12950;SDS011;6540;50.858;7.232;2023-02-26T05:56:37;3.73;;;2.37;;
12950;SDS011;6540;50.858;7.232;2023-02-26T05:59:03;4.23;;;2.43;;
12950;SDS011;6540;50.858;7.232;2023-02-26T06:01:28;4.50;;;2.57;;
12950;SDS011;6540;50.858;7.232;2023-02-26T06:03:54;4.23;;;2.67;;
12950;SDS011;6540;50.858;7.232;2023-02-26T06:06:19;2.50;;;2.30;;
12950;SDS011;6540;50.858;7.232;2023-02-26T06:08:45;5.13;;;2.60;;
12950;SDS011;6540;50.858;7.232;2023-02-26T06:11:12;5.97;;;2.53;;
12950;SDS011;6540;50.858;7.232;2023-02-26T06:13:38;2.30;;;2.10;;
12950;SDS011;6540;50.858;7.232;2023-02-26T06:16:04;2.93;;;2.03;;
12950;SDS011;6540;50.858;7.232;2023-02-26T06:18:29;7.87;;;2.50;;
12950;SDS011;6540;50.858;7.232;2023-02-26T06:20:56;4.00;;;2.07;;
12950;SDS011;6540;50.858;7.232;2023-02-26T06:23:21;3.23;;;2.30;;
12950;SDS011;6540;50.858;7.232;2023-02-26T06:25:49;1.83;;;1.73;;
12950;SDS011;6540;50.858;7.232;2023-02-26T06:28:15;3.30;;;1.87;;
12950;SDS011;6540;50.858;7.232;2023-02-26T06:30:41;1.83;;;1.73;;
12950;SDS011;6540;50.858;7.232;2023-02-26T06:33:06;3.57;;;2.10;;
12950;SDS011;6540;50.858;7.232;2023-02-26T06:35:31;5.90;;;1.97;;
12950;SDS011;6540;50.858;7.232;2023-02-26T06:37:57;7.27;;;3.60;;
12950;SDS011;6540;50.858;7.232;2023-02-26T06:40:22;3.53;;;2.57;;
12950;SDS011;6540;50.858;7.232;2023-02-26T06:42:48;3.40;;;2.57;;
12950;SDS011;6540;50.858;7.232;2023-02-26T06:45:13;5.13;;;3.03;;
12950;SDS011;6540;50.858;7.232;2023-02-26T06:47:38;3.77;;;2.73;;
12950;SDS011;6540;50.858;7.232;2023-02-26T06:50:04;4.60;;;2.00;;
12950;SDS011;6540;50.858;7.232;2023-02-26T06:52:30;2.23;;;1.97;;
12950;SDS011;6540;50.858;7.232;2023-02-26T06:54:56;2.27;;;2.00;;
12950;SDS011;6540;50.858;7.232;2023-02-26T06:57:21;3.47;;;2.37;;
12950;SDS011;6540;50.858;7.232;2023-02-26T06:59:46;3.40;;;2.40;;
12950;SDS011;6540;50.858;7.232;2023-02-26T07:02:16;5.20;;;3.37;;
12950;SDS011;6540;50.858;7.232;2023-02-26T07:04:42;4.30;;;2.87;;
12950;SDS011;6540;50.858;7.232;2023-02-26T07:07:08;1.97;;;1.80;;
12950;SDS011;6540;50.858;7.232;2023-02-26T07:09:33;4.00;;;3.47;;
12950;SDS011;6540;50.858;7.232;2023-02-26T07:11:59;8.50;;;4.37;;
12950;SDS011;6540;50.858;7.232;2023-02-26T07:14:24;7.33;;;5.40;;
12950;SDS011;6540;50.858;7.232;2023-02-26T07:16:50;6.57;;;3.50;;
12950;SDS011;6540;50.858;7.232;2023-02-26T07:19:15;3.97;;;3.20;;
12950;SDS011;6540;50.858;7.232;2023-02-26T07:21:40;3.70;;;2.77;;
12950;SDS011;6540;50.858;7.232;2023-02-26T07:24:06;5.17;;;2.23;;
12950;SDS011;6540;50.858;7.232;2023-02-26T07:26:31;2.50;;;2.30;;
12950;SDS011;6540;50.858;7.232;2023-02-26T07:28:57;2.43;;;2.23;;
12950;SDS011;6540;50.858;7.232;2023-02-26T07:31:22;3.80;;;3.07;;
12950;SDS011;6540;50.858;7.232;2023-02-26T07:33:48;7.67;;;3.40;;
12950;SDS011;6540;50.858;7.232;2023-02-26T07:36:14;2.63;;;2.33;;
12950;SDS011;6540;50.858;7.232;2023-02-26T07:38:39;2.27;;;2.00;;
12950;SDS011;6540;50.858;7.232;2023-02-26T07:41:05;2.13;;;1.93;;
12950;SDS011;6540;50.858;7.232;2023-02-26T07:43:30;3.13;;;2.70;;
12950;SDS011;6540;50.858;7.232;2023-02-26T07:45:55;3.13;;;2.47;;
12950;SDS011;6540;50.858;7.232;2023-02-26T07:48:21;2.40;;;2.20;;
12950;SDS011;6540;50.858;7.232;2023-02-26T07:50:46;2.80;;;1.77;;
12950;SDS011;6540;50.858;7.232;2023-02-26T07:53:12;3.27;;;2.80;;
12950;SDS011;6540;50.858;7.232;2023-02-26T07:55:37;2.67;;;2.10;;
12950;SDS011;6540;50.858;7.232;2023-02-26T07:58:02;2.00;;;1.80;;
12950;SDS011;6540;50.858;7.232;2023-02-26T08:00:28;3.80;;;2.90;;
12950;SDS011;6540;50.858;7.232;2023-02-26T08:02:53;3.50;;;2.43;;
12950;SDS011;6540;50.858;7.232;2023-02-26T08:05:18;2.40;;;2.20;;
12950;SDS011;6540;50.858;7.232;2023-02-26T08:07:44;2.73;;;2.13;;
12950;SDS011;6540;50.858;7.232;2023-02-26T08:10:10;2.63;;;2.40;;
12950;SDS011;6540;50.858;7.232;2023-02-26T08:12:35;2.23;;;2.03;;
12950;SDS011;6540;50.858;7.232;2023-02-26T08:15:01;2.50;;;2.30;;
12950;SDS011;6540;50.858;7.232;2023-02-26T08:17:27;3.97;;;2.70;;
12950;SDS011;6540;50.858;7.232;2023-02-26T08:19:52;3.90;;;2.33;;
12950;SDS011;6540;50.858;7.232;2023-02-26T08:22:17;3.97;;;2.30;;
12950;SDS011;6540;50.858;7.232;2023-02-26T08:24:43;2.40;;;2.20;;
12950;SDS011;6540;50.858;7.232;2023-02-26T08:27:08;2.80;;;2.60;;
12950;SDS011;6540;50.858;7.232;2023-02-26T08:29:34;2.77;;;2.07;;
12950;SDS011;6540;50.858;7.232;2023-02-26T08:31:59;2.47;;;1.90;;
12950;SDS011;6540;50.858;7.232;2023-02-26T08:34:24;2.17;;;1.97;;
12950;SDS011;6540;50.858;7.232;2023-02-26T08:36:50;1.43;;;1.30;;
12950;SDS011;6540;50.858;7.232;2023-02-26T08:39:15;1.40;;;1.30;;
12950;SDS011;6540;50.858;7.232;2023-02-26T08:41:41;1.00;;;1.00;;
12950;SDS011;6540;50.858;7.232;2023-02-26T08:44:06;1.23;;;1.13;;
12950;SDS011;6540;50.858;7.232;2023-02-26T08:46:32;1.60;;;1.50;;
12950;SDS011;6540;50.858;7.232;2023-02-26T08:48:58;1.97;;;1.77;;
12950;SDS011;6540;50.858;7.232;2023-02-26T08:51:23;2.40;;;1.80;;
12950;SDS011;6540;50.858;7.232;2023-02-26T08:53:49;1.93;;;1.73;;
12950;SDS011;6540;50.858;7.232;2023-02-26T08:56:15;2.50;;;2.30;;
12950;SDS011;6540;50.858;7.232;2023-02-26T08:58:41;1.97;;;1.40;;
12950;SDS011;6540;50.858;7.232;2023-02-26T09:01:07;1.37;;;1.33;;
12950;SDS011;6540;50.858;7.232;2023-02-26T09:03:33;3.47;;;2.30;;
12950;SDS011;6540;50.858;7.232;2023-02-26T09:05:58;1.47;;;1.40;;
12950;SDS011;6540;50.858;7.232;2023-02-26T09:08:24;1.80;;;1.70;;
12950;SDS011;6540;50.858;7.232;2023-02-26T09:10:49;1.40;;;1.30;;
12950;SDS011;6540;50.858;7.232;2023-02-26T09:13:15;1.63;;;1.50;;
12950;SDS011;6540;50.858;7.232;2023-02-26T09:15:40;1.93;;;1.60;;
12950;SDS011;6540;50.858;7.232;2023-02-26T09:18:05;2.23;;;0.90;;
12950;SDS011;6540;50.858;7.232;2023-02-26T09:20:31;1.30;;;1.20;;
12950;SDS011;6540;50.858;7.232;2023-02-26T09:22:56;1.17;;;1.17;;
12950;SDS011;6540;50.858;7.232;2023-02-26T09:25:22;1.27;;;1.17;;
12950;SDS011;6540;50.858;7.232;2023-02-26T09:27:47;2.37;;;1.50;;
12950;SDS011;6540;50.858;7.232;2023-02-26T09:30:13;1.23;;;1.13;;
12950;SDS011;6540;50.858;7.232;2023-02-26T09:32:39;1.30;;;1.20;;
12950;SDS011;6540;50.858;7.232;2023-02-26T09:35:04;6.13;;;1.40;;
12950;SDS011;6540;50.858;7.232;2023-02-26T09:37:31;2.07;;;1.60;;
12950;SDS011;6540;50.858;7.232;2023-02-26T09:39:56;2.13;;;1.37;;
12950;SDS011;6540;50.858;7.232;2023-02-26T09:45:10;1.53;;;1.43;;
12950;SDS011;6540;50.858;7.232;2023-02-26T09:47:46;2.43;;;1.50;;
12950;SDS011;6540;50.858;7.232;2023-02-26T09:50:18;3.20;;;1.17;;
12950;SDS011;6540;50.858;7.232;2023-02-26T09:52:59;1.27;;;1.17;;
12950;SDS011;6540;50.858;7.232;2023-02-26T09:55:36;2.90;;;2.10;;
12950;SDS011;6540;50.858;7.232;2023-02-26T09:58:52;1.27;;;1.20;;
12950;SDS011;6540;50.858;7.232;2023-02-26T10:01:00;1.50;;;1.40;;
12950;SDS011;6540;50.858;7.232;2023-02-26T10:06:37;0.27;;;0.27;;
12950;SDS011;6540;50.858;7.232;2023-02-26T10:09:29;2.73;;;1.13;;
12950;SDS011;6540;50.858;7.232;2023-02-26T10:12:23;3.00;;;1.20;;
12950;SDS011;6540;50.858;7.232;2023-02-26T10:14:57;0.87;;;0.87;;
12950;SDS011;6540;50.858;7.232;2023-02-26T10:20:47;1.50;;;1.40;;
12950;SDS011;6540;50.858;7.232;2023-02-26T10:28:52;2.03;;;1.30;;
12950;SDS011;6540;50.858;7.232;2023-02-26T10:34:22;2.57;;;0.63;;
12950;SDS011;6540;50.858;7.232;2023-02-26T10:42:37;1.83;;;1.60;;
12950;SDS011;6540;50.858;7.232;2023-02-26T10:45:15;2.80;;;1.13;;
12950;SDS011;6540;50.858;7.232;2023-02-26T10:50:53;0.77;;;0.77;;
12950;SDS011;6540;50.858;7.232;2023-02-26T10:53:21;0.97;;;0.97;;
12950;SDS011;6540;50.858;7.232;2023-02-26T10:55:51;1.70;;;1.57;;
12950;SDS011;6540;50.858;7.232;2023-02-26T10:58:24;1.00;;;1.00;;
12950;SDS011;6540;50.858;7.232;2023-02-26T11:00:51;1.53;;;1.43;;
12950;SDS011;6540;50.858;7.232;2023-02-26T11:03:19;4.20;;;1.00;;
12950;SDS011;6540;50.858;7.232;2023-02-26T11:06:05;0.70;;;0.70;;
12950;SDS011;6540;50.858;7.232;2023-02-26T11:08:42;4.73;;;3.50;;
12950;SDS011;6540;50.858;7.232;2023-02-26T11:11:09;0.93;;;0.93;;
12950;SDS011;6540;50.858;7.232;2023-02-26T11:13:36;2.53;;;1.57;;
12950;SDS011;6540;50.858;7.232;2023-02-26T11:16:13;4.23;;;2.90;;
12950;SDS011;6540;50.858;7.232;2023-02-26T11:18:42;2.23;;;1.63;;
12950;SDS011;6540;50.858;7.232;2023-02-26T11:21:16;1.70;;;1.60;;
12950;SDS011;6540;50.858;7.232;2023-02-26T11:23:43;0.80;;;0.80;;
12950;SDS011;6540;50.858;7.232;2023-02-26T11:26:22;1.60;;;1.50;;
12950;SDS011;6540;50.858;7.232;2023-02-26T11:28:53;2.57;;;1.57;;
12950;SDS011;6540;50.858;7.232;2023-02-26T11:31:20;2.47;;;1.20;;
12950;SDS011;6540;50.858;7.232;2023-02-26T11:33:51;2.10;;;1.17;;
12950;SDS011;6540;50.858;7.232;2023-02-26T11:36:21;0.97;;;0.97;;
12950;SDS011;6540;50.858;7.232;2023-02-26T11:39:01;4.07;;;1.47;;
12950;SDS011;6540;50.858;7.232;2023-02-26T11:41:39;1.47;;;0.80;;
12950;SDS011;6540;50.858;7.232;2023-02-26T11:44:07;1.10;;;1.10;;
12950;SDS011;6540;50.858;7.232;2023-02-26T11:46:40;3.13;;;1.70;;
12950;SDS011;6540;50.858;7.232;2023-02-26T11:49:09;0.90;;;0.90;;
12950;SDS011;6540;50.858;7.232;2023-02-26T11:51:41;1.60;;;1.40;;
12950;SDS011;6540;50.858;7.232;2023-02-26T11:54:20;3.33;;;1.17;;
12950;SDS011;6540;50.858;7.232;2023-02-26T11:56:47;1.57;;;1.47;;
12950;SDS011;6540;50.858;7.232;2023-02-26T11:59:17;0.83;;;0.83;;
12950;SDS011;6540;50.858;7.232;2023-02-26T12:01:44;1.03;;;0.87;;
12950;SDS011;6540;50.858;7.232;2023-02-26T12:04:12;0.80;;;0.80;;
12950;SDS011;6540;50.858;7.232;2023-02-26T12:06:39;0.90;;;0.90;;
12950;SDS011;6540;50.858;7.232;2023-02-26T12:09:10;1.97;;;0.80;;
12950;SDS011;6540;50.858;7.232;2023-02-26T12:11:50;0.60;;;0.60;;
12950;SDS011;6540;50.858;7.232;2023-02-26T12:14:52;1.30;;;1.20;;
12950;SDS011;6540;50.858;7.232;2023-02-26T12:20:24;1.23;;;0.93;;
12950;SDS011;6540;50.858;7.232;2023-02-26T12:34:05;1.00;;;1.00;;
12950;SDS011;6540;50.858;7.232;2023-02-26T12:50:45;1.10;;;0.87;;
12950;SDS011;6540;50.858;7.232;2023-02-26T12:58:52;0.90;;;0.90;;
12950;SDS011;6540;50.858;7.232;2023-02-26T13:21:20;3.27;;;1.37;;
12950;SDS011;6540;50.858;7.232;2023-02-26T13:23:51;1.00;;;1.00;;
12950;SDS011;6540;50.858;7.232;2023-02-26T13:26:24;1.67;;;1.23;;
12950;SDS011;6540;50.858;7.232;2023-02-26T13:29:03;0.90;;;0.90;;
12950;SDS011;6540;50.858;7.232;2023-02-26T13:42:50;1.10;;;1.03;;
12950;SDS011;6540;50.858;7.232;2023-02-26T13:48:27;2.43;;;2.00;;
12950;SDS011;6540;50.858;7.232;2023-02-26T13:51:06;5.00;;;4.43;;
12950;SDS011;6540;50.858;7.232;2023-02-26T13:56:07;1.70;;;1.50;;
12950;SDS011;6540;50.858;7.232;2023-02-26T13:58:40;1.73;;;1.63;;
12950;SDS011;6540;50.858;7.232;2023-02-26T14:04:22;1.53;;;1.23;;
12950;SDS011;6540;50.858;7.232;2023-02-26T14:07:14;1.80;;;1.10;;
12950;SDS011;6540;50.858;7.232;2023-02-26T14:09:44;0.97;;;0.97;;
12950;SDS011;6540;50.858;7.232;2023-02-26T14:12:40;3.47;;;1.07;;
12950;SDS011;6540;50.858;7.232;2023-02-26T14:17:37;0.57;;;0.57;;
12950;SDS011;6540;50.858;7.232;2023-02-26T14:25:35;0.47;;;0.47;;
12950;SDS011;6540;50.858;7.232;2023-02-26T14:31:19;0.80;;;0.80;;
12950;SDS011;6540;50.858;7.232;2023-02-26T14:36:26;0.30;;;0.30;;
12950;SDS011;6540;50.858;7.232;2023-02-26T14:38:55;0.77;;;0.77;;
12950;SDS011;6540;50.858;7.232;2023-02-26T14:41:30;0.70;;;0.70;;
12950;SDS011;6540;50.858;7.232;2023-02-26T14:46:47;0.50;;;0.50;;
12950;SDS011;6540;50.858;7.232;2023-02-26T14:52:17;0.50;;;0.50;;
12950;SDS011;6540;50.858;7.232;2023-02-26T15:01:04;1.27;;;1.20;;
12950;SDS011;6540;50.858;7.232;2023-02-26T15:17:12;1.50;;;1.10;;
12950;SDS011;6540;50.858;7.232;2023-02-26T15:19:57;1.47;;;0.93;;
12950;SDS011;6540;50.858;7.232;2023-02-26T15:23:37;0.50;;;0.50;;
12950;SDS011;6540;50.858;7.232;2023-02-26T15:25:47;0.80;;;0.80;;
12950;SDS011;6540;50.858;7.232;2023-02-26T15:28:25;0.63;;;0.63;;
12950;SDS011;6540;50.858;7.232;2023-02-26T15:30:59;2.17;;;1.13;;
12950;SDS011;6540;50.858;7.232;2023-02-26T15:33:25;1.93;;;1.00;;
12950;SDS011;6540;50.858;7.232;2023-02-26T15:35:52;1.13;;;1.13;;
12950;SDS011;6540;50.858;7.232;2023-02-26T15:38:19;2.10;;;1.67;;
12950;SDS011;6540;50.858;7.232;2023-02-26T15:40:45;2.93;;;1.00;;
12950;SDS011;6540;50.858;7.232;2023-02-26T15:43:14;2.80;;;1.20;;
12950;SDS011;6540;50.858;7.232;2023-02-26T15:45:45;0.97;;;0.73;;
12950;SDS011;6540;50.858;7.232;2023-02-26T15:48:15;1.70;;;0.97;;
12950;SDS011;6540;50.858;7.232;2023-02-26T15:50:44;0.70;;;0.70;;
12950;SDS011;6540;50.858;7.232;2023-02-26T15:53:15;1.97;;;1.13;;
12950;SDS011;6540;50.858;7.232;2023-02-26T15:55:48;0.50;;;0.50;;
12950;SDS011;6540;50.858;7.232;2023-02-26T15:58:22;0.63;;;0.63;;
12950;SDS011;6540;50.858;7.232;2023-02-26T16:01:01;0.90;;;0.90;;
12950;SDS011;6540;50.858;7.232;2023-02-26T16:03:29;2.20;;;0.73;;
12950;SDS011;6540;50.858;7.232;2023-02-26T16:05:57;0.83;;;0.83;;
12950;SDS011;6540;50.858;7.232;2023-02-26T16:08:23;1.10;;;1.00;;
12950;SDS011;6540;50.858;7.232;2023-02-26T16:10:50;0.70;;;0.70;;
12950;SDS011;6540;50.858;7.232;2023-02-26T16:13:20;2.27;;;1.00;;
12950;SDS011;6540;50.858;7.232;2023-02-26T16:15:57;1.13;;;1.00;;
12950;SDS011;6540;50.858;7.232;2023-02-26T16:18:25;0.77;;;0.70;;
12950;SDS011;6540;50.858;7.232;2023-02-26T16:20:55;0.70;;;0.70;;
12950;SDS011;6540;50.858;7.232;2023-02-26T16:23:40;0.50;;;0.50;;
12950;SDS011;6540;50.858;7.232;2023-02-26T16:26:12;0.67;;;0.50;;
12950;SDS011;6540;50.858;7.232;2023-02-26T16:28:42;1.20;;;1.20;;
12950;SDS011;6540;50.858;7.232;2023-02-26T16:31:19;0.83;;;0.70;;
12950;SDS011;6540;50.858;7.232;2023-02-26T16:33:56;1.00;;;0.93;;
12950;SDS011;6540;50.858;7.232;2023-02-26T16:36:25;0.93;;;0.93;;
12950;SDS011;6540;50.858;7.232;2023-02-26T16:41:35;0.67;;;0.67;;
12950;SDS011;6540;50.858;7.232;2023-02-26T16:44:03;3.83;;;1.60;;
12950;SDS011;6540;50.858;7.232;2023-02-26T16:47:00;0.67;;;0.67;;
12950;SDS011;6540;50.858;7.232;2023-02-26T16:49:33;1.13;;;1.03;;
12950;SDS011;6540;50.858;7.232;2023-02-26T16:52:00;0.70;;;0.70;;
12950;SDS011;6540;50.858;7.232;2023-02-26T16:54:29;0.90;;;0.90;;
12950;SDS011;6540;50.858;7.232;2023-02-26T16:56:59;1.83;;;0.77;;
12950;SDS011;6540;50.858;7.232;2023-02-26T16:59:29;1.33;;;1.10;;
12950;SDS011;6540;50.858;7.232;2023-02-26T17:02:13;3.50;;;1.17;;
12950;SDS011;6540;50.858;7.232;2023-02-26T17:04:42;0.87;;;0.87;;
12950;SDS011;6540;50.858;7.232;2023-02-26T17:09:54;1.73;;;1.20;;
12950;SDS011;6540;50.858;7.232;2023-02-26T17:12:44;1.30;;;1.20;;
12950;SDS011;6540;50.858;7.232;2023-02-26T17:15:27;1.97;;;1.00;;
12950;SDS011;6540;50.858;7.232;2023-02-26T17:17:54;1.57;;;1.47;;
12950;SDS011;6540;50.858;7.232;2023-02-26T17:20:22;0.70;;;0.70;;
12950;SDS011;6540;50.858;7.232;2023-02-26T17:22:48;1.27;;;0.90;;
12950;SDS011;6540;50.858;7.232;2023-02-26T17:25:15;0.90;;;0.90;;
12950;SDS011;6540;50.858;7.232;2023-02-26T17:27:42;1.43;;;1.10;;
12950;SDS011;6540;50.858;7.232;2023-02-26T17:30:10;1.73;;;1.30;;
12950;SDS011;6540;50.858;7.232;2023-02-26T17:32:40;1.50;;;1.00;;
12950;SDS011;6540;50.858;7.232;2023-02-26T17:35:06;1.30;;;1.20;;
12950;SDS011;6540;50.858;7.232;2023-02-26T17:37:33;2.93;;;1.50;;
12950;SDS011;6540;50.858;7.232;2023-02-26T17:40:00;2.60;;;1.50;;
12950;SDS011;6540;50.858;7.232;2023-02-26T17:42:28;3.50;;;1.47;;
12950;SDS011;6540;50.858;7.232;2023-02-26T17:44:54;5.87;;;1.70;;
12950;SDS011;6540;50.858;7.232;2023-02-26T17:47:24;1.83;;;1.30;;
12950;SDS011;6540;50.858;7.232;2023-02-26T17:49:50;1.37;;;1.27;;
12950;SDS011;6540;50.858;7.232;2023-02-26T17:52:17;1.57;;;1.00;;
12950;SDS011;6540;50.858;7.232;2023-02-26T17:54:43;1.73;;;1.47;;
12950;SDS011;6540;50.858;7.232;2023-02-26T17:57:10;0.87;;;0.87;;
12950;SDS011;6540;50.858;7.232;2023-02-26T17:59:43;3.10;;;1.53;;
12950;SDS011;6540;50.858;7.232;2023-02-26T18:02:15;1.53;;;1.43;;
12950;SDS011;6540;50.858;7.232;2023-02-26T18:04:42;5.27;;;2.57;;
12950;SDS011;6540;50.858;7.232;2023-02-26T18:07:08;6.53;;;2.30;;
12950;SDS011;6540;50.858;7.232;2023-02-26T18:09:40;1.90;;;1.80;;
12950;SDS011;6540;50.858;7.232;2023-02-26T18:12:09;2.87;;;2.30;;
12950;SDS011;6540;50.858;7.232;2023-02-26T18:14:37;5.27;;;2.70;;
12950;SDS011;6540;50.858;7.232;2023-02-26T18:17:02;5.10;;;2.70;;
12950;SDS011;6540;50.858;7.232;2023-02-26T18:19:27;4.23;;;2.80;;
12950;SDS011;6540;50.858;7.232;2023-02-26T18:21:53;2.50;;;2.10;;
12950;SDS011;6540;50.858;7.232;2023-02-26T18:24:18;2.47;;;1.90;;
12950;SDS011;6540;50.858;7.232;2023-02-26T18:26:43;3.97;;;2.33;;
12950;SDS011;6540;50.858;7.232;2023-02-26T18:29:09;5.97;;;3.00;;
12950;SDS011;6540;50.858;7.232;2023-02-26T18:31:35;5.30;;;2.97;;
12950;SDS011;6540;50.858;7.232;2023-02-26T18:34:01;9.80;;;3.80;;
12950;SDS011;6540;50.858;7.232;2023-02-26T18:36:28;6.23;;;3.97;;